createdAt,value
2019-05-21T00:00:48.966Z,1016.78
2019-05-21T00:01:48.959Z,1016.75
2019-05-21T00:02:48.952Z,1016.75
2019-05-21T00:03:48.945Z,1016.75
2019-05-21T00:04:48.938Z,1016.79
2019-05-21T00:05:48.933Z,1016.81
2019-05-21T00:06:48.924Z,1016.81
2019-05-21T00:07:48.919Z,1016.85
2019-05-21T00:08:48.908Z,1016.85
2019-05-21T00:09:48.903Z,1016.89
2019-05-21T00:10:48.899Z,1016.88
2019-05-21T00:11:48.888Z,1016.93
2019-05-21T00:12:48.881Z,1016.88
2019-05-21T00:13:48.875Z,1016.92
2019-05-21T00:14:48.867Z,1016.98
2019-05-21T00:15:48.858Z,1016.97
2019-05-21T00:16:48.854Z,1016.96
2019-05-21T00:17:48.846Z,1016.97
2019-05-21T00:18:48.838Z,1016.98
2019-05-21T00:19:48.830Z,1016.98
2019-05-21T00:20:48.823Z,1016.99
2019-05-21T00:21:48.815Z,1017.04
2019-05-21T00:22:48.809Z,1017.06
2019-05-21T00:23:48.804Z,1017.08
2019-05-21T00:24:48.904Z,1017.09
2019-05-21T00:25:48.788Z,1017.13
2019-05-21T00:26:48.782Z,1017.13
2019-05-21T00:27:48.774Z,1017.14
2019-05-21T00:28:48.766Z,1017.16
2019-05-21T00:29:48.759Z,1017.17
2019-05-21T00:30:48.754Z,1017.11
2019-05-21T00:31:48.744Z,1017.12
2019-05-21T00:32:48.737Z,1017.1
2019-05-21T00:33:48.730Z,1017.09
2019-05-21T00:34:48.724Z,1017.1
2019-05-21T00:35:48.714Z,1017.1
2019-05-21T00:36:48.706Z,1017.06
2019-05-21T00:37:48.700Z,1017.08
2019-05-21T00:38:51.708Z,1017.09
2019-05-21T00:39:48.689Z,1017.1
2019-05-21T00:40:48.680Z,1017.09
2019-05-21T00:41:48.680Z,1017.1
2019-05-21T00:42:48.665Z,1017.09
2019-05-21T00:43:48.657Z,1017.09
2019-05-21T00:44:48.650Z,1017.12
2019-05-21T00:45:48.643Z,1017.13
2019-05-21T00:46:48.636Z,1017.15
2019-05-21T00:47:48.625Z,1017.18
2019-05-21T00:49:01.351Z,1017.16
2019-05-21T00:49:48.631Z,1017.19
2019-05-21T00:50:48.605Z,1017.18
2019-05-21T00:51:48.599Z,1017.23
2019-05-21T00:52:48.591Z,1017.22
2019-05-21T00:53:48.585Z,1017.26
2019-05-21T00:54:48.577Z,1017.27
2019-05-21T00:55:49.794Z,1017.27
2019-05-21T00:56:48.568Z,1017.28
2019-05-21T00:57:48.558Z,1017.31
2019-05-21T00:58:48.551Z,1017.31
2019-05-21T00:59:48.538Z,1017.31
2019-05-21T01:00:48.532Z,1017.28
2019-05-21T01:01:48.524Z,1017.27
2019-05-21T01:02:48.516Z,1017.29
2019-05-21T01:03:48.510Z,1017.3
2019-05-21T01:04:59.994Z,1017.3
2019-05-21T01:05:48.498Z,1017.33
2019-05-21T01:06:48.487Z,1017.32
2019-05-21T01:07:48.483Z,1017.32
2019-05-21T01:08:48.473Z,1017.36
2019-05-21T01:09:48.464Z,1017.32
2019-05-21T01:10:48.457Z,1017.33
2019-05-21T01:11:48.450Z,1017.33
2019-05-21T01:12:48.446Z,1017.32
2019-05-21T01:13:48.434Z,1017.33
2019-05-21T01:14:48.428Z,1017.35
2019-05-21T01:15:48.419Z,1017.28
2019-05-21T01:16:48.410Z,1017.29
2019-05-21T01:17:49.188Z,1017.27
2019-05-21T01:18:48.397Z,1017.25
2019-05-21T01:19:48.389Z,1017.25
2019-05-21T01:20:48.381Z,1017.19
2019-05-21T01:21:48.372Z,1017.19
2019-05-21T01:22:48.366Z,1017.19
2019-05-21T01:23:48.359Z,1017.18
2019-05-21T01:24:48.355Z,1017.19
2019-05-21T01:25:48.343Z,1017.2
2019-05-21T01:26:48.336Z,1017.23
2019-05-21T01:27:48.331Z,1017.2
2019-05-21T01:28:48.320Z,1017.17
2019-05-21T01:29:48.313Z,1017.18
2019-05-21T01:30:48.305Z,1017.2
2019-05-21T01:31:48.298Z,1017.24
2019-05-21T01:32:48.290Z,1017.23
2019-05-21T01:33:48.282Z,1017.22
2019-05-21T01:34:48.274Z,1017.25
2019-05-21T01:35:48.266Z,1017.24
2019-05-21T01:36:48.259Z,1017.24
2019-05-21T01:37:48.251Z,1017.26
2019-05-21T01:38:48.243Z,1017.25
2019-05-21T01:39:48.236Z,1017.26
2019-05-21T01:40:48.227Z,1017.27
2019-05-21T01:41:48.221Z,1017.23
2019-05-21T01:42:48.211Z,1017.24
2019-05-21T01:43:48.205Z,1017.25
2019-05-21T01:44:48.198Z,1017.24
2019-05-21T01:45:48.246Z,1017.26
2019-05-21T01:46:48.181Z,1017.26
2019-05-21T01:47:48.174Z,1017.3
2019-05-21T01:48:48.167Z,1017.32
2019-05-21T01:49:48.158Z,1017.35
2019-05-21T01:50:48.150Z,1017.36
2019-05-21T01:51:48.141Z,1017.43
2019-05-21T01:52:48.135Z,1017.41
2019-05-21T01:53:48.128Z,1017.43
2019-05-21T01:54:48.119Z,1017.44
2019-05-21T01:55:48.137Z,1017.42
2019-05-21T01:56:48.105Z,1017.42
2019-05-21T01:57:48.095Z,1017.42
2019-05-21T01:58:48.093Z,1017.44
2019-05-21T01:59:48.078Z,1017.44
2019-05-21T02:00:48.071Z,1017.44
2019-05-21T02:01:48.064Z,1017.45
2019-05-21T02:02:48.069Z,1017.44
2019-05-21T02:03:48.048Z,1017.42
2019-05-21T02:04:48.039Z,1017.4
2019-05-21T02:05:48.032Z,1017.41
2019-05-21T02:06:49.336Z,1017.39
2019-05-21T02:07:48.017Z,1017.39
2019-05-21T02:08:48.008Z,1017.36
2019-05-21T02:09:48.001Z,1017.36
2019-05-21T02:10:47.993Z,1017.35
2019-05-21T02:11:47.987Z,1017.36
2019-05-21T02:12:47.977Z,1017.34
2019-05-21T02:13:47.970Z,1017.34
2019-05-21T02:14:47.961Z,1017.35
2019-05-21T02:15:47.953Z,1017.41
2019-05-21T02:16:47.944Z,1017.39
2019-05-21T02:17:47.980Z,1017.42
2019-05-21T02:18:47.930Z,1017.42
2019-05-21T02:19:47.922Z,1017.46
2019-05-21T02:20:47.914Z,1017.45
2019-05-21T02:21:47.910Z,1017.41
2019-05-21T02:22:47.899Z,1017.46
2019-05-21T02:23:47.888Z,1017.48
2019-05-21T02:24:47.880Z,1017.48
2019-05-21T02:25:47.874Z,1017.49
2019-05-21T02:26:47.866Z,1017.47
2019-05-21T02:27:47.856Z,1017.47
2019-05-21T02:28:47.849Z,1017.45
2019-05-21T02:29:47.842Z,1017.49
2019-05-21T02:30:47.835Z,1017.46
2019-05-21T02:31:47.827Z,1017.46
2019-05-21T02:32:47.820Z,1017.5
2019-05-21T02:33:47.811Z,1017.49
2019-05-21T02:34:47.802Z,1017.52
2019-05-21T02:35:53.969Z,1017.52
2019-05-21T02:36:47.787Z,1017.52
2019-05-21T02:37:48.588Z,1017.59
2019-05-21T02:38:47.771Z,1017.58
2019-05-21T02:39:47.761Z,1017.58
2019-05-21T02:40:47.755Z,1017.6
2019-05-21T02:41:47.747Z,1017.62
2019-05-21T02:42:47.738Z,1017.57
2019-05-21T02:43:47.731Z,1017.63
2019-05-21T02:44:47.724Z,1017.62
2019-05-21T02:45:47.717Z,1017.64
2019-05-21T02:46:47.709Z,1017.68
2019-05-21T02:47:47.699Z,1017.68
2019-05-21T02:48:47.689Z,1017.69
2019-05-21T02:49:47.682Z,1017.7
2019-05-21T02:50:47.689Z,1017.71
2019-05-21T02:51:47.668Z,1017.65
2019-05-21T02:52:47.658Z,1017.7
2019-05-21T02:53:47.648Z,1017.68
2019-05-21T02:54:47.641Z,1017.69
2019-05-21T02:55:47.631Z,1017.67
2019-05-21T02:56:47.625Z,1017.72
2019-05-21T02:57:47.617Z,1017.74
2019-05-21T02:58:47.609Z,1017.79
2019-05-21T02:59:47.604Z,1017.79
2019-05-21T03:00:47.598Z,1017.8
2019-05-21T03:01:47.603Z,1017.82
2019-05-21T03:02:47.575Z,1017.82
2019-05-21T03:03:47.568Z,1017.82
2019-05-21T03:04:47.558Z,1017.81
2019-05-21T03:05:47.550Z,1017.83
2019-05-21T03:06:47.542Z,1017.85
2019-05-21T03:07:47.534Z,1017.84
2019-05-21T03:08:47.527Z,1017.9
2019-05-21T03:09:47.520Z,1017.9
2019-05-21T03:10:47.511Z,1017.88
2019-05-21T03:11:47.503Z,1017.89
2019-05-21T03:12:47.493Z,1017.86
2019-05-21T03:13:47.486Z,1017.87
2019-05-21T03:14:47.476Z,1017.79
2019-05-21T03:15:47.475Z,1017.8
2019-05-21T03:16:47.463Z,1017.81
2019-05-21T03:17:47.455Z,1017.77
2019-05-21T03:18:47.450Z,1017.8
2019-05-21T03:19:47.436Z,1017.89
2019-05-21T03:20:47.430Z,1017.87
2019-05-21T03:21:47.437Z,1017.9
2019-05-21T03:22:47.414Z,1017.93
2019-05-21T03:23:47.405Z,1017.98
2019-05-21T03:24:47.394Z,1017.91
2019-05-21T03:25:47.389Z,1017.97
2019-05-21T03:26:47.379Z,1017.92
2019-05-21T03:27:47.372Z,1017.95
2019-05-21T03:28:47.363Z,1017.93
2019-05-21T03:29:47.358Z,1017.93
2019-05-21T03:30:47.347Z,1017.95
2019-05-21T03:31:47.339Z,1017.95
2019-05-21T03:32:47.334Z,1017.93
2019-05-21T03:33:47.323Z,1017.92
2019-05-21T03:34:47.329Z,1017.93
2019-05-21T03:35:47.307Z,1017.93
2019-05-21T03:36:47.298Z,1017.92
2019-05-21T03:37:47.291Z,1017.88
2019-05-21T03:38:47.282Z,1017.91
2019-05-21T03:39:47.273Z,1017.85
2019-05-21T03:40:47.271Z,1017.73
2019-05-21T03:41:47.262Z,1017.55
2019-05-21T03:42:47.256Z,1017.42
2019-05-21T03:43:47.246Z,1017.23
2019-05-21T03:44:58.651Z,1017.01
2019-05-21T03:45:47.232Z,1016.79
2019-05-21T03:46:47.223Z,1016.61
2019-05-21T03:47:47.219Z,1016.48
2019-05-21T03:48:47.209Z,1016.28
2019-05-21T03:49:47.201Z,1016.11
2019-05-21T03:50:47.197Z,1016.02
2019-05-21T03:51:47.185Z,1015.92
2019-05-21T03:52:47.189Z,1015.84
2019-05-21T03:53:47.172Z,1015.65
2019-05-21T03:54:47.166Z,1015.43
2019-05-21T03:55:47.159Z,1015.23
2019-05-21T03:56:47.158Z,1015.1
2019-05-21T03:57:47.166Z,1014.98
2019-05-21T03:58:47.141Z,1014.83
2019-05-21T03:59:47.135Z,1014.67
2019-05-21T04:00:47.131Z,1014.56
2019-05-21T04:01:47.123Z,1014.5
2019-05-21T04:02:47.119Z,1014.34
2019-05-21T04:03:47.109Z,1014.18
2019-05-21T04:04:47.105Z,1014.09
2019-05-21T04:05:47.101Z,1014
2019-05-21T04:06:51.608Z,1013.86
2019-05-21T04:07:47.095Z,1013.81
2019-05-21T04:09:47.083Z,1013.61
2019-05-21T04:10:47.082Z,1013.54
2019-05-21T04:11:47.077Z,1013.45
2019-05-21T04:12:47.077Z,1013.39
2019-05-21T04:13:47.069Z,1013.24
2019-05-21T04:14:47.077Z,1013.2
2019-05-21T04:15:47.063Z,1013.18
2019-05-21T04:16:47.067Z,1013.12
2019-05-21T04:17:47.060Z,1013.1
2019-05-21T04:18:47.054Z,1013.04
2019-05-21T04:19:47.052Z,1013.01
2019-05-21T04:20:47.051Z,1012.92
2019-05-21T04:21:47.047Z,1012.89
2019-05-21T04:22:47.046Z,1012.82
2019-05-21T04:23:47.045Z,1012.81
2019-05-21T04:24:47.042Z,1012.75
2019-05-21T04:25:47.042Z,1012.71
2019-05-21T04:26:47.038Z,1012.69
2019-05-21T04:27:47.039Z,1012.6
2019-05-21T04:28:47.042Z,1012.58
2019-05-21T04:29:47.039Z,1012.5
2019-05-21T04:30:47.043Z,1012.49
2019-05-21T04:31:47.037Z,1012.4
2019-05-21T04:32:47.037Z,1012.37
2019-05-21T04:33:47.038Z,1012.42
2019-05-21T04:34:47.036Z,1012.42
2019-05-21T04:35:47.037Z,1012.41
2019-05-21T04:36:47.038Z,1012.36
2019-05-21T04:37:47.040Z,1012.33
2019-05-21T04:38:47.040Z,1012.3
2019-05-21T04:39:47.072Z,1012.28
2019-05-21T04:40:47.040Z,1012.29
2019-05-21T04:41:47.051Z,1012.26
2019-05-21T04:42:47.043Z,1012.23
2019-05-21T04:43:47.047Z,1012.19
2019-05-21T04:44:47.047Z,1012.22
2019-05-21T04:45:47.050Z,1012.22
2019-05-21T04:46:47.054Z,1012.22
2019-05-21T04:47:47.052Z,1012.23
2019-05-21T04:48:47.057Z,1012.17
2019-05-21T04:49:47.056Z,1012.05
2019-05-21T04:50:47.059Z,1011.95
2019-05-21T04:51:47.062Z,1011.89
2019-05-21T04:52:47.064Z,1011.81
2019-05-21T04:53:47.067Z,1011.71
2019-05-21T04:54:47.067Z,1011.57
2019-05-21T04:55:47.074Z,1011.44
2019-05-21T04:56:47.075Z,1011.37
2019-05-21T04:57:47.077Z,1011.33
2019-05-21T04:58:47.094Z,1011.27
2019-05-21T04:59:47.085Z,1011.27
2019-05-21T05:00:47.089Z,1011.23
2019-05-21T05:01:47.104Z,1011.18
2019-05-21T05:02:47.098Z,1011.16
2019-05-21T05:03:47.103Z,1011.07
2019-05-21T05:04:47.109Z,1010.94
2019-05-21T05:05:47.111Z,1010.79
2019-05-21T05:06:47.119Z,1010.72
2019-05-21T05:07:47.126Z,1010.71
2019-05-21T05:08:47.125Z,1010.71
2019-05-21T05:09:47.131Z,1010.75
2019-05-21T05:10:49.252Z,1010.77
2019-05-21T05:11:47.142Z,1010.72
2019-05-21T05:12:47.149Z,1010.63
2019-05-21T05:13:47.154Z,1010.63
2019-05-21T05:14:47.162Z,1010.61
2019-05-21T05:15:47.166Z,1010.56
2019-05-21T05:16:47.172Z,1010.55
2019-05-21T05:17:47.179Z,1010.53
2019-05-21T05:18:47.185Z,1010.52
2019-05-21T05:19:47.192Z,1010.56
2019-05-21T05:20:47.199Z,1010.58
2019-05-21T05:21:47.204Z,1010.5
2019-05-21T05:22:47.215Z,1010.53
2019-05-21T05:23:47.282Z,1010.55
2019-05-21T05:24:47.226Z,1010.56
2019-05-21T05:25:47.233Z,1010.51
2019-05-21T05:26:47.241Z,1010.47
2019-05-21T05:27:47.249Z,1010.47
2019-05-21T05:28:47.256Z,1010.39
2019-05-21T05:29:47.263Z,1010.39
2019-05-21T05:30:47.270Z,1010.39
2019-05-21T05:31:47.291Z,1010.38
2019-05-21T05:32:47.288Z,1010.31
2019-05-21T05:33:47.292Z,1010.29
2019-05-21T05:34:47.302Z,1010.31
2019-05-21T05:35:47.310Z,1010.33
2019-05-21T05:36:47.318Z,1010.38
2019-05-21T05:37:48.853Z,1010.35
2019-05-21T05:38:47.335Z,1010.28
2019-05-21T05:39:47.342Z,1010.25
2019-05-21T05:40:47.351Z,1010.2
2019-05-21T05:41:47.360Z,1010.21
2019-05-21T05:42:47.367Z,1010.14
2019-05-21T05:43:47.383Z,1010.19
2019-05-21T05:44:47.386Z,1010.12
2019-05-21T05:45:47.393Z,1010.15
2019-05-21T05:46:47.402Z,1010.11
2019-05-21T05:47:47.410Z,1009.94
2019-05-21T05:48:47.419Z,1009.9
2019-05-21T05:49:47.437Z,1009.9
2019-05-21T05:50:47.439Z,1009.95
2019-05-21T05:51:47.446Z,1009.92
2019-05-21T05:52:47.464Z,1009.88
2019-05-21T05:53:47.464Z,1009.81
2019-05-21T05:54:47.473Z,1009.79
2019-05-21T05:55:47.483Z,1009.72
2019-05-21T05:56:47.490Z,1009.72
2019-05-21T05:57:47.502Z,1009.66
2019-05-21T05:58:47.512Z,1009.62
2019-05-21T05:59:47.520Z,1009.62
2019-05-21T06:00:47.529Z,1009.61
2019-05-21T06:01:47.538Z,1009.49
2019-05-21T06:02:47.548Z,1009.29
2019-05-21T06:03:47.558Z,1009.32
2019-05-21T06:04:47.569Z,1009.61
2019-05-21T06:05:47.577Z,1009.57
2019-05-21T06:06:47.586Z,1009.52
2019-05-21T06:08:47.609Z,1009.34
2019-05-21T06:10:47.627Z,1009.34
2019-05-21T06:11:47.641Z,1009.28
2019-05-21T06:12:47.669Z,1009.2
2019-05-21T06:13:47.657Z,1009.16
2019-05-21T06:14:47.667Z,1009.16
2019-05-21T06:15:47.677Z,1009.21
2019-05-21T06:16:47.761Z,1009.13
2019-05-21T06:17:47.697Z,1009.02
2019-05-21T06:18:47.708Z,1008.89
2019-05-21T06:19:47.718Z,1008.79
2019-05-21T06:20:47.729Z,1008.77
2019-05-21T06:21:47.741Z,1008.77
2019-05-21T06:22:47.752Z,1008.72
2019-05-21T06:23:47.761Z,1008.65
2019-05-21T06:24:47.771Z,1008.69
2019-05-21T06:25:47.783Z,1008.62
2019-05-21T06:26:47.792Z,1008.82
2019-05-21T06:27:47.802Z,1008.95
2019-05-21T06:28:47.815Z,1008.8
2019-05-21T06:29:47.825Z,1008.76
2019-05-21T06:30:47.844Z,1008.84
2019-05-21T06:31:47.848Z,1008.92
2019-05-21T06:32:47.859Z,1008.86
2019-05-21T06:33:47.869Z,1008.77
2019-05-21T06:34:48.735Z,1008.38
2019-05-21T06:35:47.890Z,1008.36
2019-05-21T06:36:47.901Z,1008.28
2019-05-21T06:37:47.913Z,1008.2
2019-05-21T06:38:47.933Z,1008.19
2019-05-21T06:39:47.935Z,1008.17
2019-05-21T06:40:47.954Z,1008.07
2019-05-21T06:41:47.958Z,1007.99
2019-05-21T06:42:47.969Z,1007.97
2019-05-21T06:43:47.981Z,1007.94
2019-05-21T06:44:47.993Z,1007.97
2019-05-21T06:45:48.004Z,1007.9
2019-05-21T06:46:48.027Z,1007.93
2019-05-21T06:47:48.030Z,1007.87
2019-05-21T06:48:48.042Z,1007.86
2019-05-21T06:49:48.055Z,1007.82
2019-05-21T06:50:48.067Z,1007.82
2019-05-21T06:51:48.079Z,1007.79
2019-05-21T06:52:48.101Z,1007.8
2019-05-21T06:53:48.104Z,1007.72
2019-05-21T06:54:48.117Z,1007.65
2019-05-21T06:55:48.131Z,1007.63
2019-05-21T06:57:48.159Z,1007.36
2019-05-21T06:58:48.174Z,1007.4
2019-05-21T06:59:48.183Z,1007.48
2019-05-21T07:00:48.196Z,1007.72
2019-05-21T07:01:48.214Z,1007.82
2019-05-21T07:02:48.224Z,1008.01
2019-05-21T07:03:48.238Z,1007.95
2019-05-21T07:04:48.250Z,1007.98
2019-05-21T07:05:58.004Z,1007.94
2019-05-21T07:06:48.279Z,1007.87
2019-05-21T07:07:48.291Z,1007.9
2019-05-21T07:08:48.305Z,1007.91
2019-05-21T07:09:48.319Z,1007.95
2019-05-21T07:10:48.333Z,1007.9
2019-05-21T07:11:48.345Z,1007.76
2019-05-21T07:12:48.359Z,1007.73
2019-05-21T07:13:48.373Z,1007.65
2019-05-21T07:14:48.386Z,1007.62
2019-05-21T07:15:48.401Z,1007.56
2019-05-21T07:16:48.415Z,1007.5
2019-05-21T08:11:49.134Z,1006.09
2019-05-21T08:12:49.150Z,1006.06
2019-05-21T08:13:49.163Z,1006.07
2019-05-21T08:14:49.584Z,1006.16
2019-05-21T08:15:49.196Z,1006.35
2019-05-21T08:16:49.211Z,1006.62
2019-05-21T08:17:49.224Z,1006.92
2019-05-21T08:18:49.240Z,1007.18
2019-05-21T08:19:49.257Z,1007.4
2019-05-21T08:20:49.676Z,1007.57
2019-05-21T08:21:49.287Z,1007.66
2019-05-21T08:22:49.302Z,1007.8
2019-05-21T08:23:49.318Z,1007.87
2019-05-21T08:24:49.332Z,1007.93
2019-05-21T08:25:49.348Z,1007.98
2019-05-21T08:26:49.374Z,1007.99
2019-05-21T08:27:49.380Z,1008.01
2019-05-21T08:28:49.399Z,1008.04
2019-05-21T08:29:49.409Z,1008.08
2019-05-21T08:30:49.427Z,1008.2
2019-05-21T08:31:49.438Z,1008.34
2019-05-21T08:32:49.454Z,1008.55
2019-05-21T08:33:49.474Z,1008.84
2019-05-21T08:34:49.483Z,1008.87
2019-05-21T08:35:49.496Z,1008.87
2019-05-21T08:36:49.513Z,1008.95
2019-05-21T08:37:49.526Z,1009.33
2019-05-21T08:38:49.544Z,1009.91
2019-05-21T08:39:49.553Z,1009.48
2019-05-21T08:40:49.567Z,1009.63
2019-05-21T08:41:49.581Z,1009.42
2019-05-21T08:42:49.594Z,1009.25
2019-05-21T08:43:49.606Z,1009.26
2019-05-21T08:44:49.620Z,1009.53
2019-05-21T08:45:49.633Z,1009.99
2019-05-21T08:46:49.645Z,1010.66
2019-05-21T08:47:49.657Z,1011.15
2019-05-21T08:48:49.669Z,1011.54
2019-05-21T08:49:49.682Z,1011.84
2019-05-21T08:50:49.702Z,1012.09
2019-05-21T08:51:49.706Z,1012.36
2019-05-21T08:52:49.717Z,1012.63
2019-05-21T08:53:49.729Z,1012.87
2019-05-21T08:54:49.736Z,1013.15
2019-05-21T08:55:49.748Z,1013.28
2019-05-21T08:56:49.760Z,1013.6
2019-05-21T08:58:03.753Z,1013.76
2019-05-21T08:58:49.795Z,1013.97
2019-05-21T08:59:49.785Z,1014.11
2019-05-21T09:00:49.793Z,1014.28
2019-05-21T09:01:49.801Z,1014.42
2019-05-21T09:02:49.811Z,1014.54
2019-05-21T09:03:49.819Z,1014.65
2019-05-21T09:04:49.866Z,1014.77
2019-05-21T09:05:49.830Z,1014.86
2019-05-21T09:06:49.841Z,1014.9
2019-05-21T09:08:49.849Z,1015.15
2019-05-21T09:09:51.694Z,1015.05
2019-05-21T09:10:49.863Z,1014.92
2019-05-21T09:11:49.868Z,1014.74
2019-05-21T09:12:49.871Z,1014.65
2019-05-21T09:13:49.875Z,1014.62
2019-05-21T09:14:49.903Z,1014.69
2019-05-21T09:15:49.884Z,1014.72
2019-05-21T09:16:49.889Z,1014.76
2019-05-21T09:17:49.894Z,1014.82
2019-05-21T09:18:49.897Z,1014.88
2019-05-21T09:19:49.901Z,1015
2019-05-21T09:20:49.905Z,1015.09
2019-05-21T09:21:49.912Z,1015.17
2019-05-21T09:22:49.915Z,1015.15
2019-05-21T09:23:49.916Z,1015.18
2019-05-21T09:24:49.921Z,1015.28
2019-05-21T09:25:49.927Z,1015.34
2019-05-21T09:26:49.928Z,1015.38
2019-05-21T09:27:49.931Z,1015.33
2019-05-21T09:28:49.936Z,1015.39
2019-05-21T09:29:49.940Z,1015.53
2019-05-21T09:30:49.956Z,1015.66
2019-05-21T09:31:49.946Z,1015.71
2019-05-21T09:32:49.950Z,1015.75
2019-05-21T09:33:49.952Z,1015.81
2019-05-21T09:34:49.962Z,1015.83
2019-05-21T09:35:49.958Z,1015.81
2019-05-21T09:36:49.961Z,1015.7
2019-05-21T09:37:49.966Z,1015.6
2019-05-21T09:38:49.980Z,1015.52
2019-05-21T09:39:49.970Z,1015.52
2019-05-21T09:40:49.973Z,1015.58
2019-05-21T09:41:49.975Z,1015.51
2019-05-21T09:42:49.980Z,1015.55
2019-05-21T09:43:49.982Z,1015.51
2019-05-21T09:44:49.984Z,1015.48
2019-05-21T09:45:49.989Z,1015.51
2019-05-21T09:46:49.990Z,1015.56
2019-05-21T09:47:49.993Z,1015.59
2019-05-21T09:48:49.994Z,1015.63
2019-05-21T09:49:49.997Z,1015.65
2019-05-21T09:50:49.999Z,1015.59
2019-05-21T09:51:50.003Z,1015.55
2019-05-21T09:52:50.003Z,1015.5
2019-05-21T09:53:50.007Z,1015.55
2019-05-21T09:54:50.010Z,1015.52
2019-05-21T09:55:50.012Z,1015.53
2019-05-21T09:56:50.015Z,1015.48
2019-05-21T09:57:50.023Z,1015.48
2019-05-21T09:59:50.022Z,1015.46
2019-05-21T10:00:50.024Z,1015.5
2019-05-21T10:01:50.028Z,1015.48
2019-05-21T10:02:50.030Z,1015.51
2019-05-21T10:03:50.032Z,1015.55
2019-05-21T10:04:50.034Z,1015.48
2019-05-21T10:05:50.038Z,1015.45
2019-05-21T10:06:50.040Z,1015.44
2019-05-21T10:07:50.042Z,1015.33
2019-05-21T10:08:50.044Z,1015.27
2019-05-21T10:09:50.049Z,1015.21
2019-05-21T10:10:50.048Z,1015.12
2019-05-21T10:11:50.096Z,1015.1
2019-05-21T10:12:50.057Z,1015.05
2019-05-21T10:13:50.058Z,1014.94
2019-05-21T10:14:50.063Z,1014.78
2019-05-21T10:15:50.079Z,1014.65
2019-05-21T10:16:50.069Z,1014.58
2019-05-21T10:17:50.069Z,1014.44
2019-05-21T10:18:50.076Z,1014.34
2019-05-21T10:19:50.074Z,1014.32
2019-05-21T10:20:50.078Z,1014.26
2019-05-21T10:21:50.081Z,1014.21
2019-05-21T10:22:50.085Z,1014.14
2019-05-21T10:23:50.090Z,1014.06
2019-05-21T10:24:50.093Z,1014.06
2019-05-21T10:25:50.097Z,1014.15
2019-05-21T10:26:50.103Z,1014.25
2019-05-21T10:27:50.106Z,1014.36
2019-05-21T10:28:50.109Z,1014.4
2019-05-21T10:29:50.113Z,1014.39
2019-05-21T10:30:50.119Z,1014.4
2019-05-21T10:31:50.125Z,1014.38
2019-05-21T10:32:50.128Z,1014.36
2019-05-21T10:33:50.130Z,1014.28
2019-05-21T10:34:50.134Z,1014.31
2019-05-21T10:35:50.138Z,1014.29
2019-05-21T10:36:50.142Z,1014.35
2019-05-21T10:37:54.791Z,1014.43
2019-05-21T10:38:50.172Z,1014.49
2019-05-21T10:39:50.156Z,1014.57
2019-05-21T10:40:50.186Z,1014.56
2019-05-21T10:41:50.179Z,1014.51
2019-05-21T10:42:50.169Z,1014.47
2019-05-21T10:43:50.174Z,1014.55
2019-05-21T10:44:50.178Z,1014.58
2019-05-21T10:45:50.181Z,1014.61
2019-05-21T10:46:50.185Z,1014.79
2019-05-21T10:47:50.192Z,1014.86
2019-05-21T10:48:50.197Z,1014.97
2019-05-21T10:49:50.197Z,1014.94
2019-05-21T10:50:50.201Z,1014.97
2019-05-21T10:51:50.213Z,1014.94
2019-05-21T10:52:50.211Z,1014.85
2019-05-21T10:53:50.220Z,1014.76
2019-05-21T10:54:50.217Z,1014.73
2019-05-21T10:55:50.221Z,1014.66
2019-05-21T10:56:50.227Z,1014.67
2019-05-21T10:57:50.227Z,1014.69
2019-05-21T10:58:50.233Z,1014.73
2019-05-21T10:59:50.237Z,1014.73
2019-05-21T11:00:50.242Z,1014.74
2019-05-21T11:01:50.244Z,1014.76
2019-05-21T11:02:50.378Z,1014.76
2019-05-21T11:03:50.252Z,1014.78
2019-05-21T11:04:50.267Z,1014.79
2019-05-21T11:05:50.260Z,1014.77
2019-05-21T11:06:50.264Z,1014.71
2019-05-21T11:07:50.273Z,1014.67
2019-05-21T11:08:50.273Z,1014.62
2019-05-21T11:09:50.276Z,1014.54
2019-05-21T11:10:50.297Z,1014.48
2019-05-21T11:11:50.285Z,1014.4
2019-05-21T11:12:50.288Z,1014.36
2019-05-21T11:13:50.293Z,1014.26
2019-05-21T11:14:50.298Z,1014.27
2019-05-21T11:15:50.301Z,1014.24
2019-05-21T11:16:50.305Z,1014.23
2019-05-21T11:18:08.958Z,1014.25
2019-05-21T11:18:50.315Z,1014.3
2019-05-21T11:19:50.316Z,1014.27
2019-05-21T11:20:50.366Z,1014.25
2019-05-21T11:21:50.325Z,1014.23
2019-05-21T11:22:50.333Z,1014.24
2019-05-21T11:23:50.339Z,1014.25
2019-05-21T11:24:50.337Z,1014.32
2019-05-21T11:25:50.342Z,1014.39
2019-05-21T11:26:50.346Z,1014.49
2019-05-21T11:27:50.376Z,1014.6
2019-05-21T11:28:50.386Z,1014.64
2019-05-21T11:29:50.358Z,1014.7
2019-05-21T11:30:50.416Z,1014.79
2019-05-21T11:31:56.726Z,1014.82
2019-05-21T11:32:50.392Z,1014.87
2019-05-21T11:33:50.375Z,1014.95
2019-05-21T11:34:50.658Z,1014.96
2019-05-21T11:35:50.383Z,1014.96
2019-05-21T11:36:50.385Z,1014.94
2019-05-21T11:37:50.406Z,1014.92
2019-05-21T11:38:50.392Z,1014.9
2019-05-21T11:39:50.396Z,1014.88
2019-05-21T11:40:51.248Z,1014.9
2019-05-21T11:41:51.677Z,1014.88
2019-05-21T11:42:52.900Z,1014.88
2019-05-21T11:43:50.410Z,1014.86
2019-05-21T11:44:50.416Z,1014.84
2019-05-21T11:45:50.425Z,1014.75
2019-05-21T11:46:50.422Z,1014.74
2019-05-21T11:47:50.425Z,1014.68
2019-05-21T11:48:50.429Z,1014.6
2019-05-21T11:49:50.431Z,1014.61
2019-05-21T11:50:50.436Z,1014.57
2019-05-21T11:51:50.441Z,1014.57
2019-05-21T11:52:50.442Z,1014.52
2019-05-21T11:53:50.446Z,1014.45
2019-05-21T11:54:50.470Z,1014.46
2019-05-21T11:55:50.464Z,1014.43
2019-05-21T11:56:50.459Z,1014.44
2019-05-21T11:57:50.461Z,1014.48
2019-05-21T11:58:50.465Z,1014.51
2019-05-21T11:59:50.469Z,1014.51
2019-05-21T12:00:50.472Z,1014.48
2019-05-21T12:01:50.478Z,1014.45
2019-05-21T12:02:50.481Z,1014.4
2019-05-21T12:03:50.485Z,1014.39
2019-05-21T12:04:50.489Z,1014.41
2019-05-21T12:05:50.496Z,1014.44
2019-05-21T12:06:50.509Z,1014.45
2019-05-21T12:07:50.502Z,1014.51
2019-05-21T12:08:56.557Z,1014.56
2019-05-21T12:09:50.509Z,1014.61
2019-05-21T12:10:50.513Z,1014.74
2019-05-21T12:11:50.516Z,1014.77
2019-05-21T12:12:50.521Z,1014.85
2019-05-21T12:13:50.526Z,1014.89
2019-05-21T12:14:50.528Z,1014.92
2019-05-21T12:15:50.533Z,1014.9
2019-05-21T12:16:50.536Z,1014.89
2019-05-21T12:17:50.541Z,1014.87
2019-05-21T12:18:50.545Z,1014.85
2019-05-21T12:19:50.547Z,1014.83
2019-05-21T12:20:50.562Z,1014.8
2019-05-21T12:21:50.556Z,1014.84
2019-05-21T12:22:50.568Z,1014.86
2019-05-21T12:23:50.562Z,1014.88
2019-05-21T12:24:50.574Z,1014.96
2019-05-21T12:25:50.568Z,1015.04
2019-05-21T12:26:50.572Z,1015.17
2019-05-21T12:27:50.576Z,1015.3
2019-05-21T12:28:50.603Z,1015.37
2019-05-21T12:29:50.582Z,1015.5
2019-05-21T12:30:50.586Z,1015.63
2019-05-21T12:31:50.588Z,1015.73
2019-05-21T12:32:50.595Z,1015.83
2019-05-21T12:33:50.610Z,1015.92
2019-05-21T12:34:50.606Z,1016
2019-05-21T12:35:50.601Z,1016.06
2019-05-21T12:36:50.602Z,1016.09
2019-05-21T12:37:50.608Z,1016.12
2019-05-21T12:38:50.608Z,1016.1
2019-05-21T12:39:50.613Z,1016.12
2019-05-21T12:40:50.615Z,1016.06
2019-05-21T12:41:50.617Z,1016.07
2019-05-21T12:42:50.616Z,1016.08
2019-05-21T12:43:50.646Z,1016.01
2019-05-21T12:44:50.621Z,1016.05
2019-05-21T12:45:50.766Z,1016.02
2019-05-21T12:46:50.623Z,1015.92
2019-05-21T12:47:50.929Z,1015.98
2019-05-21T12:48:50.627Z,1015.97
2019-05-21T12:49:50.630Z,1015.98
2019-05-21T12:50:50.632Z,1016.02
2019-05-21T12:51:50.645Z,1016.04
2019-05-21T12:52:50.643Z,1015.99
2019-05-21T12:53:50.654Z,1015.95
2019-05-21T12:54:50.644Z,1015.94
2019-05-21T12:55:50.639Z,1015.95
2019-05-21T12:56:50.638Z,1015.91
2019-05-21T12:57:50.640Z,1015.9
2019-05-21T12:58:50.642Z,1015.82
2019-05-21T12:59:50.648Z,1015.83
2019-05-21T13:00:50.653Z,1015.85
2019-05-21T13:01:50.646Z,1015.84
2019-05-21T13:02:50.647Z,1015.88
2019-05-21T13:03:50.648Z,1015.89
2019-05-21T13:04:50.650Z,1015.94
2019-05-21T13:05:50.682Z,1015.93
2019-05-21T13:06:50.672Z,1015.84
2019-05-21T13:07:50.654Z,1015.81
2019-05-21T13:08:50.663Z,1015.74